createdAt,value
2018-08-14T00:01:19.823Z,99.90
2018-08-14T00:03:49.353Z,99.90
2018-08-14T00:06:18.839Z,99.90
2018-08-14T00:08:48.324Z,99.90
2018-08-14T00:11:17.789Z,99.90
2018-08-14T00:13:47.253Z,99.90
2018-08-14T00:16:16.880Z,99.90
2018-08-14T00:18:46.538Z,99.90
2018-08-14T00:21:16.061Z,99.90
2018-08-14T00:23:46.795Z,99.90
2018-08-14T00:26:16.763Z,99.90
2018-08-14T00:28:46.330Z,99.90
2018-08-14T00:31:16.138Z,99.90
2018-08-14T00:33:46.006Z,99.90
2018-08-14T00:36:15.746Z,99.90
2018-08-14T00:38:45.672Z,99.90
2018-08-14T00:41:15.369Z,99.90
2018-08-14T00:43:45.059Z,99.90
2018-08-14T00:46:14.803Z,99.90
2018-08-14T00:48:44.667Z,99.90
2018-08-14T00:51:14.209Z,99.90
2018-08-14T00:53:44.216Z,99.90
2018-08-14T00:56:13.751Z,99.90
2018-08-14T00:58:43.278Z,99.90
2018-08-14T01:01:12.908Z,99.90
2018-08-14T01:03:42.519Z,99.90
2018-08-14T01:06:13.583Z,99.90
2018-08-14T01:08:44.754Z,99.90
2018-08-14T01:11:14.270Z,99.90
2018-08-14T01:13:43.914Z,99.90
2018-08-14T01:16:13.596Z,99.90
2018-08-14T01:18:43.073Z,99.90
2018-08-14T01:21:12.495Z,99.90
2018-08-14T01:23:41.806Z,99.90
2018-08-14T01:26:11.331Z,99.90
2018-08-14T01:28:41.053Z,99.90
2018-08-14T01:31:10.812Z,99.90
2018-08-14T01:33:39.390Z,99.90
2018-08-14T01:36:09.432Z,99.90
2018-08-14T01:38:39.123Z,99.90
2018-08-14T01:41:08.531Z,99.90
2018-08-14T01:43:37.900Z,99.90
2018-08-14T01:46:07.672Z,99.90
2018-08-14T01:48:37.335Z,99.90
2018-08-14T01:51:07.033Z,99.90
2018-08-14T01:53:36.325Z,99.90
2018-08-14T01:56:05.842Z,99.90
2018-08-14T01:58:35.345Z,99.90
2018-08-14T02:01:05.112Z,99.90
2018-08-14T02:03:35.088Z,99.90
2018-08-14T02:06:04.690Z,99.90
2018-08-14T02:08:34.393Z,99.90
2018-08-14T02:11:03.912Z,99.90
2018-08-14T02:13:33.384Z,99.90
2018-08-14T02:16:03.040Z,99.90
2018-08-14T02:18:32.887Z,99.90
2018-08-14T02:21:02.465Z,99.90
2018-08-14T02:23:31.891Z,99.90
2018-08-14T02:26:01.817Z,99.90
2018-08-14T02:28:31.217Z,99.90
2018-08-14T02:31:00.859Z,99.90
2018-08-14T02:33:30.329Z,99.90
2018-08-14T02:35:59.904Z,99.90
2018-08-14T02:38:29.366Z,99.90
2018-08-14T02:40:59.190Z,99.90
2018-08-14T02:43:28.848Z,99.90
2018-08-14T02:45:58.454Z,99.90
2018-08-14T02:48:27.819Z,99.90
2018-08-14T02:50:57.228Z,99.90
2018-08-14T02:53:26.702Z,99.90
2018-08-14T02:55:57.340Z,99.90
2018-08-14T02:58:27.964Z,99.90
2018-08-14T03:00:57.693Z,99.90
2018-08-14T03:03:27.300Z,99.90
2018-08-14T03:05:56.745Z,99.90
2018-08-14T03:08:26.420Z,99.90
2018-08-14T03:10:55.864Z,99.90
2018-08-14T03:13:25.625Z,99.90
2018-08-14T03:15:55.062Z,99.90
2018-08-14T03:18:25.509Z,99.90
2018-08-14T03:20:54.901Z,99.90
2018-08-14T03:23:24.379Z,99.90
2018-08-14T03:25:53.789Z,99.90
2018-08-14T03:28:23.536Z,99.90
2018-08-14T03:30:53.250Z,99.90
2018-08-14T03:33:22.532Z,99.90
2018-08-14T03:35:52.369Z,99.90
2018-08-14T03:38:21.762Z,99.90
2018-08-14T03:40:51.852Z,99.90
2018-08-14T03:43:21.205Z,99.90
2018-08-14T03:45:50.730Z,99.90
2018-08-14T03:48:20.210Z,99.90
2018-08-14T03:50:49.697Z,99.90
2018-08-14T03:53:19.312Z,99.90
2018-08-14T03:55:49.702Z,99.90
2018-08-14T03:58:19.276Z,99.90
2018-08-14T04:00:48.911Z,99.90
2018-08-14T04:03:18.342Z,99.90
2018-08-14T04:05:47.627Z,99.90
2018-08-14T04:08:17.051Z,99.90
2018-08-14T04:10:47.906Z,99.90
2018-08-14T04:13:18.121Z,99.90
2018-08-14T04:15:48.359Z,99.90
2018-08-14T04:18:18.048Z,99.90
2018-08-14T04:20:47.764Z,99.90
2018-08-14T04:23:17.463Z,99.90
2018-08-14T04:25:47.331Z,99.90
2018-08-14T04:28:17.133Z,99.90
2018-08-14T04:30:47.602Z,99.90
2018-08-14T04:33:17.337Z,99.90
2018-08-14T04:35:46.884Z,99.90
2018-08-14T04:38:16.570Z,99.90
2018-08-14T04:40:46.041Z,99.90
2018-08-14T04:43:15.648Z,99.90
2018-08-14T04:45:45.379Z,99.90
2018-08-14T04:48:14.921Z,99.90
2018-08-14T04:50:44.495Z,99.90
2018-08-14T04:53:13.963Z,99.90
2018-08-14T04:55:43.425Z,99.90
2018-08-14T04:58:12.862Z,99.90
2018-08-14T05:00:42.307Z,99.90
2018-08-14T05:03:12.019Z,99.90
2018-08-14T05:05:42.326Z,99.90
2018-08-14T05:08:11.936Z,99.90
2018-08-14T05:10:41.699Z,99.90
2018-08-14T05:13:11.359Z,99.90
2018-08-14T05:15:40.883Z,99.90
2018-08-14T05:18:10.325Z,99.90
2018-08-14T05:20:39.838Z,99.90
2018-08-14T05:23:09.241Z,99.90
2018-08-14T05:25:39.013Z,99.90
2018-08-14T05:28:08.774Z,99.90
2018-08-14T05:30:38.906Z,99.90
2018-08-14T05:33:08.474Z,99.90
2018-08-14T05:35:38.803Z,99.90
2018-08-14T05:38:08.555Z,99.90
2018-08-14T05:40:38.213Z,99.90
2018-08-14T05:43:07.996Z,99.90
2018-08-14T05:45:37.641Z,99.90
2018-08-14T05:48:07.547Z,99.90
2018-08-14T05:50:36.982Z,99.90
2018-08-14T05:53:06.694Z,99.90
2018-08-14T05:55:35.937Z,99.90
2018-08-14T05:58:05.123Z,99.90
2018-08-14T06:00:34.503Z,99.90
2018-08-14T06:03:04.077Z,99.90
2018-08-14T06:05:34.320Z,99.90
2018-08-14T06:08:03.785Z,99.90
2018-08-14T06:10:33.309Z,99.90
2018-08-14T06:13:03.611Z,99.90
2018-08-14T06:15:33.124Z,99.90
2018-08-14T06:18:02.461Z,99.90
2018-08-14T06:20:31.902Z,99.90
2018-08-14T06:23:01.487Z,99.90
2018-08-14T06:25:31.261Z,99.90
2018-08-14T06:28:00.844Z,99.90
2018-08-14T06:30:30.372Z,99.90
2018-08-14T06:33:00.011Z,99.90
2018-08-14T06:35:29.529Z,99.90
2018-08-14T06:37:58.993Z,99.90
2018-08-14T06:40:28.833Z,99.90
2018-08-14T06:42:58.423Z,99.90
2018-08-14T06:45:27.823Z,99.90
2018-08-14T06:47:57.174Z,99.90
2018-08-14T06:50:26.793Z,99.90
2018-08-14T06:52:56.277Z,99.90
2018-08-14T06:55:26.714Z,99.90
2018-08-14T06:57:56.099Z,99.90
2018-08-14T07:00:25.605Z,99.90
2018-08-14T07:02:57.374Z,99.90
2018-08-14T07:05:26.831Z,99.90
2018-08-14T07:07:56.438Z,99.90
2018-08-14T07:10:26.098Z,99.90
2018-08-14T07:12:55.565Z,99.90
2018-08-14T07:15:25.258Z,99.90
2018-08-14T07:17:54.790Z,99.90
2018-08-14T07:20:24.167Z,99.90
2018-08-14T07:22:53.606Z,99.90
2018-08-14T07:25:23.260Z,99.90
2018-08-14T07:27:52.633Z,99.90
2018-08-14T07:30:23.721Z,99.90
2018-08-14T07:32:53.228Z,99.90
2018-08-14T07:35:22.741Z,99.90
2018-08-14T07:37:52.360Z,99.90
2018-08-14T07:40:21.920Z,99.90
2018-08-14T07:42:51.502Z,99.90
2018-08-14T07:45:21.189Z,99.90
2018-08-14T07:47:50.527Z,99.90
2018-08-14T07:50:19.980Z,99.90
2018-08-14T07:52:49.373Z,99.90
2018-08-14T07:55:18.923Z,99.90
2018-08-14T07:57:48.456Z,99.90
2018-08-14T08:00:19.747Z,99.90
2018-08-14T08:02:50.388Z,99.90
2018-08-14T08:05:20.442Z,99.90
2018-08-14T08:07:50.742Z,99.90
2018-08-14T08:10:20.471Z,99.90
2018-08-14T08:12:50.462Z,99.90
2018-08-14T08:15:20.590Z,99.90
2018-08-14T08:17:50.514Z,99.90
2018-08-14T08:20:32.403Z,99.90
2018-08-14T08:23:02.535Z,99.90
2018-08-14T08:25:32.808Z,99.90
2018-08-14T08:28:02.742Z,99.90
2018-08-14T08:30:32.077Z,99.90
2018-08-14T08:33:01.568Z,99.90
2018-08-14T08:35:30.978Z,99.90
2018-08-14T08:38:00.566Z,99.90
2018-08-14T08:40:30.253Z,99.90
2018-08-14T08:42:59.829Z,99.90
2018-08-14T08:45:29.667Z,99.90
2018-08-14T08:48:09.973Z,99.90
2018-08-14T08:50:39.479Z,99.90
2018-08-14T08:53:08.909Z,99.90
2018-08-14T08:55:38.367Z,99.90
2018-08-14T08:58:08.193Z,99.90
2018-08-14T09:00:37.825Z,99.90
2018-08-14T09:03:07.397Z,99.90
2018-08-14T09:05:37.222Z,99.90
2018-08-14T09:08:08.624Z,99.90
2018-08-14T09:10:38.142Z,99.90
2018-08-14T09:13:08.684Z,99.90
2018-08-14T09:15:38.229Z,99.90
2018-08-14T09:18:07.717Z,99.90
2018-08-14T09:20:37.571Z,99.90
2018-08-14T09:23:07.186Z,99.90
2018-08-14T09:25:36.796Z,99.90
2018-08-14T09:28:06.245Z,99.90
2018-08-14T09:30:36.182Z,99.90
2018-08-14T09:33:06.003Z,99.90
2018-08-14T09:35:35.610Z,99.90
2018-08-14T09:38:05.049Z,99.90
2018-08-14T09:40:40.079Z,99.90
2018-08-14T09:43:09.639Z,99.90
2018-08-14T09:45:49.720Z,99.90
2018-08-14T09:48:32.317Z,99.90
2018-08-14T09:51:02.004Z,99.90
2018-08-14T09:53:31.882Z,99.90
2018-08-14T09:56:01.500Z,99.90
2018-08-14T09:58:31.728Z,99.90
2018-08-14T10:01:04.704Z,99.90
2018-08-14T10:03:38.249Z,99.90
2018-08-14T10:06:12.809Z,99.90
2018-08-14T10:08:42.380Z,99.90
2018-08-14T10:11:11.862Z,99.90
2018-08-14T10:13:41.313Z,99.60
2018-08-14T10:16:10.758Z,99.30
2018-08-14T10:18:40.217Z,98.50
2018-08-14T10:21:09.916Z,98.30
2018-08-14T10:23:39.397Z,99.40
2018-08-14T10:26:09.251Z,99.90
2018-08-14T10:28:38.728Z,97.10
2018-08-14T10:31:08.322Z,97.60
2018-08-14T10:33:38.170Z,97.10
2018-08-14T10:36:08.001Z,95.20
2018-08-14T10:38:37.525Z,96.70
2018-08-14T10:41:07.160Z,95.50
2018-08-14T10:43:36.735Z,95.00
2018-08-14T10:46:07.026Z,93.40
2018-08-14T10:48:36.684Z,94.60
2018-08-14T10:51:06.859Z,95.10
2018-08-14T10:53:36.646Z,95.30
2018-08-14T10:56:06.311Z,95.40
2018-08-14T10:58:35.890Z,96.10
2018-08-14T11:01:05.461Z,96.90
2018-08-14T11:03:36.244Z,96.50
2018-08-14T11:06:05.957Z,96.40
2018-08-14T11:08:35.255Z,96.70
2018-08-14T11:11:07.670Z,97.20
2018-08-14T11:13:37.333Z,96.90
2018-08-14T11:16:06.960Z,96.90
2018-08-14T11:18:36.595Z,97.70
2018-08-14T11:21:06.316Z,97.00
2018-08-14T11:23:36.025Z,97.70
2018-08-14T11:26:05.416Z,96.90
2018-08-14T11:28:34.925Z,96.60
2018-08-14T11:31:04.204Z,97.60
2018-08-14T11:33:33.517Z,97.60
2018-08-14T11:36:06.479Z,98.20
2018-08-14T11:38:36.290Z,98.30
2018-08-14T11:41:06.256Z,96.70
2018-08-14T11:43:36.270Z,95.40
2018-08-14T11:46:05.984Z,93.80
2018-08-14T11:48:35.236Z,94.50
2018-08-14T11:51:04.698Z,92.70
2018-08-14T11:53:33.955Z,93.00
2018-08-14T11:56:03.252Z,94.20
2018-08-14T11:58:33.196Z,94.90
2018-08-14T12:01:02.889Z,95.00
2018-08-14T12:03:32.268Z,95.90
2018-08-14T12:06:01.873Z,95.80
2018-08-14T12:08:31.812Z,95.80
2018-08-14T12:11:01.355Z,96.30
2018-08-14T12:13:30.689Z,96.50
2018-08-14T12:16:00.179Z,95.50
2018-08-14T12:18:30.510Z,94.30
2018-08-14T12:21:00.235Z,94.10
2018-08-14T12:23:29.646Z,94.90
2018-08-14T12:25:59.090Z,94.90
2018-08-14T12:28:29.272Z,95.30
2018-08-14T12:30:59.011Z,96.10
2018-08-14T12:33:28.494Z,96.40
2018-08-14T12:35:58.159Z,96.70
2018-08-14T12:38:27.887Z,96.80
2018-08-14T12:40:57.306Z,97.50
2018-08-14T12:43:26.844Z,98.40
2018-08-14T12:45:56.204Z,99.00
2018-08-14T12:48:25.792Z,99.50
2018-08-14T12:50:55.220Z,99.90
2018-08-14T12:53:24.791Z,99.90
2018-08-14T12:55:54.708Z,99.90
2018-08-14T12:58:24.211Z,99.90
2018-08-14T13:00:54.212Z,99.90
2018-08-14T13:03:24.469Z,99.70
2018-08-14T13:05:54.140Z,99.80
2018-08-14T13:08:24.194Z,99.10
2018-08-14T13:10:53.570Z,99.30
2018-08-14T13:13:23.065Z,98.00
2018-08-14T13:15:52.737Z,97.40
2018-08-14T13:18:22.138Z,96.90
2018-08-14T13:20:51.685Z,96.90
2018-08-14T13:23:21.240Z,96.80
2018-08-14T13:25:51.116Z,96.80
2018-08-14T13:28:20.531Z,97.50
2018-08-14T13:30:50.942Z,97.60
2018-08-14T13:33:20.800Z,97.30
2018-08-14T13:35:50.450Z,97.60
2018-08-14T13:38:19.938Z,96.50
2018-08-14T13:40:49.581Z,96.50
2018-08-14T13:43:19.051Z,95.80
2018-08-14T13:45:48.661Z,96.10
2018-08-14T13:48:18.090Z,96.70
2018-08-14T13:50:47.731Z,96.70
2018-08-14T13:53:17.300Z,95.90
2018-08-14T13:55:46.985Z,95.70
2018-08-14T13:58:16.520Z,95.90
2018-08-14T14:00:46.083Z,95.70
2018-08-14T14:03:15.695Z,95.20
2018-08-14T14:05:45.170Z,95.10
2018-08-14T14:08:14.644Z,95.00
2018-08-14T14:10:44.348Z,94.10
2018-08-14T14:13:14.073Z,94.20
2018-08-14T14:15:43.751Z,93.70
2018-08-14T14:18:13.029Z,94.50
2018-08-14T14:20:42.669Z,94.30
2018-08-14T14:23:12.268Z,95.80
2018-08-14T14:25:41.667Z,96.10
2018-08-14T14:28:11.152Z,95.50
2018-08-14T14:30:40.608Z,96.00
2018-08-14T14:33:10.277Z,99.00
2018-08-14T14:35:39.852Z,99.90
2018-08-14T14:38:09.533Z,99.90
2018-08-14T14:40:39.032Z,99.90
2018-08-14T14:43:08.528Z,99.90
2018-08-14T14:45:38.077Z,99.90
2018-08-14T14:48:07.852Z,99.90
2018-08-14T14:50:37.605Z,99.90
2018-08-14T14:53:07.429Z,99.50
2018-08-14T14:55:37.037Z,99.90
2018-08-14T14:58:06.418Z,99.60
2018-08-14T15:00:36.732Z,99.00
2018-08-14T15:03:07.455Z,99.90
2018-08-14T15:05:37.033Z,99.90
2018-08-14T15:08:06.393Z,99.90
2018-08-14T15:10:35.806Z,99.90
2018-08-14T15:13:05.957Z,99.90
2018-08-14T15:15:35.269Z,99.90
2018-08-14T15:18:04.641Z,99.90
2018-08-14T15:20:34.236Z,99.90
2018-08-14T15:23:03.920Z,99.90
2018-08-14T15:25:33.584Z,99.90
2018-08-14T15:29:24.891Z,99.90
2018-08-14T15:31:56.520Z,99.90
2018-08-14T15:34:29.017Z,99.90
2018-08-14T15:37:00.382Z,99.90
2018-08-14T15:39:30.084Z,99.90
2018-08-14T15:42:00.290Z,99.90
2018-08-14T15:44:30.601Z,99.90
2018-08-14T15:47:00.285Z,99.90
2018-08-14T15:49:31.659Z,99.90
2018-08-14T15:52:01.040Z,99.90
2018-08-14T15:54:31.725Z,99.90
2018-08-14T15:57:01.110Z,99.90
2018-08-14T15:59:29.973Z,99.90
2018-08-14T16:01:59.479Z,99.90
2018-08-14T16:04:28.948Z,99.90
2018-08-14T16:06:58.539Z,99.90
2018-08-14T16:09:27.985Z,99.90
2018-08-14T16:11:57.463Z,99.90
2018-08-14T16:14:27.303Z,99.60
2018-08-14T16:16:56.938Z,99.90
2018-08-14T16:19:26.646Z,99.90
2018-08-14T16:21:56.216Z,99.90
2018-08-14T16:24:25.794Z,99.90
2018-08-14T16:26:55.217Z,99.90
2018-08-14T16:29:24.652Z,99.90
2018-08-14T16:31:54.184Z,99.90
2018-08-14T16:34:23.929Z,99.90
2018-08-14T16:36:53.229Z,99.90
2018-08-14T16:39:22.783Z,99.90
2018-08-14T16:41:52.415Z,99.90
2018-08-14T16:44:21.961Z,99.90
2018-08-14T16:46:51.497Z,99.90
2018-08-14T16:49:21.064Z,99.90
2018-08-14T16:51:50.509Z,99.90
2018-08-14T16:54:20.023Z,99.90
2018-08-14T16:56:49.818Z,99.90
2018-08-14T16:59:19.353Z,99.90
2018-08-14T17:01:48.941Z,99.90
2018-08-14T17:04:18.457Z,99.90
2018-08-14T17:06:47.986Z,99.90
2018-08-14T17:09:17.434Z,99.90
2018-08-14T17:11:46.887Z,99.90
2018-08-14T17:14:16.452Z,99.90
2018-08-14T17:16:46.102Z,99.90
2018-08-14T17:19:15.230Z,99.90
2018-08-14T17:21:43.189Z,99.90
2018-08-14T17:24:12.997Z,99.90
2018-08-14T17:26:42.571Z,99.90
2018-08-14T17:29:12.002Z,99.90
2018-08-14T17:31:41.879Z,99.90
2018-08-14T17:34:11.442Z,99.90
2018-08-14T17:36:41.182Z,99.90
2018-08-14T17:39:10.762Z,99.90
2018-08-14T17:41:40.299Z,99.90
2018-08-14T17:44:09.965Z,99.90
2018-08-14T17:46:39.971Z,99.90
2018-08-14T17:49:09.662Z,99.90
2018-08-14T17:51:39.509Z,99.90
2018-08-14T17:54:09.012Z,99.90
2018-08-14T17:56:39.029Z,99.90
2018-08-14T17:59:08.715Z,99.90
2018-08-14T18:01:38.197Z,99.90
2018-08-14T18:04:07.602Z,99.90
2018-08-14T18:06:36.907Z,99.90
2018-08-14T18:09:10.141Z,99.90
2018-08-14T18:11:40.577Z,99.90
2018-08-14T18:14:10.190Z,99.90
2018-08-14T18:16:39.736Z,99.90
2018-08-14T18:19:09.256Z,99.90
2018-08-14T18:21:38.764Z,99.90
2018-08-14T18:24:08.273Z,99.90
2018-08-14T18:26:37.649Z,99.90
2018-08-14T18:29:07.316Z,99.90
2018-08-14T18:31:36.737Z,99.90
2018-08-14T18:34:06.466Z,99.90
2018-08-14T18:36:36.081Z,99.90
2018-08-14T18:39:08.047Z,99.90
2018-08-14T18:41:37.786Z,99.90
2018-08-14T18:44:07.352Z,99.90
2018-08-14T18:46:38.213Z,99.90
2018-08-14T18:49:07.921Z,99.90
2018-08-14T18:51:37.953Z,99.90
2018-08-14T18:54:07.913Z,99.90
2018-08-14T18:56:37.436Z,99.90
2018-08-14T18:59:07.311Z,99.90
2018-08-14T19:01:36.594Z,99.90
2018-08-14T19:04:05.853Z,99.90
2018-08-14T19:06:35.762Z,99.90
2018-08-14T19:09:06.748Z,99.90
2018-08-14T19:11:36.675Z,99.90
2018-08-14T19:14:06.150Z,99.90
2018-08-14T19:16:35.358Z,99.90
2018-08-14T19:19:04.573Z,99.90
2018-08-14T19:21:33.889Z,99.90
2018-08-14T19:24:03.656Z,99.90
2018-08-14T19:26:33.068Z,99.90
2018-08-14T19:29:02.937Z,99.90
2018-08-14T19:31:32.598Z,99.90
2018-08-14T19:34:02.440Z,99.90
2018-08-14T19:36:31.961Z,99.90
2018-08-14T19:39:02.005Z,99.90
2018-08-14T19:41:31.545Z,99.90
2018-08-14T19:44:01.152Z,99.90
2018-08-14T19:46:30.909Z,99.90
2018-08-14T19:49:00.459Z,99.90
2018-08-14T19:51:30.040Z,99.90
2018-08-14T19:53:59.529Z,99.90
2018-08-14T19:56:29.146Z,99.90
2018-08-14T19:58:58.789Z,99.90
2018-08-14T20:01:28.407Z,99.90
2018-08-14T20:03:57.899Z,99.90
2018-08-14T20:06:27.573Z,99.90
2018-08-14T20:08:57.278Z,99.90
2018-08-14T20:11:26.756Z,99.90
2018-08-14T20:13:58.057Z,99.90
2018-08-14T20:16:27.697Z,99.90
2018-08-14T20:18:57.152Z,99.90
2018-08-14T20:21:26.468Z,99.90
2018-08-14T20:23:56.032Z,99.90
2018-08-14T20:26:26.925Z,99.90
2018-08-14T20:28:56.462Z,99.90
2018-08-14T20:31:26.165Z,99.90
2018-08-14T20:33:56.230Z,99.90
2018-08-14T20:36:25.885Z,99.90
2018-08-14T20:38:55.356Z,99.90
2018-08-14T20:41:24.791Z,99.90
2018-08-14T20:43:54.461Z,99.90
2018-08-14T20:46:24.128Z,99.90
2018-08-14T20:48:53.846Z,99.90
2018-08-14T20:51:24.253Z,99.90
2018-08-14T20:53:53.860Z,99.90
2018-08-14T20:56:23.568Z,99.90
2018-08-14T20:58:53.196Z,99.90
2018-08-14T21:01:23.084Z,99.90
2018-08-14T21:03:53.213Z,99.90
2018-08-14T21:06:22.729Z,99.90
2018-08-14T21:08:52.350Z,99.90
2018-08-14T21:11:21.937Z,99.90
2018-08-14T21:13:51.508Z,99.90
2018-08-14T21:16:26.341Z,99.90
2018-08-14T21:18:57.492Z,99.90
2018-08-14T21:21:27.565Z,99.90
2018-08-14T21:23:57.617Z,99.90
2018-08-14T21:26:27.606Z,99.90
2018-08-14T21:28:57.470Z,99.90
2018-08-14T21:31:27.118Z,99.90
2018-08-14T21:33:56.723Z,99.90
2018-08-14T21:36:26.298Z,99.90
2018-08-14T21:38:55.880Z,99.90
2018-08-14T21:41:25.555Z,99.90
2018-08-14T21:43:58.348Z,99.90
2018-08-14T21:46:27.828Z,99.90
2018-08-14T21:48:57.437Z,99.90
2018-08-14T21:51:26.976Z,99.90
2018-08-14T21:53:56.632Z,99.90
2018-08-14T21:56:26.085Z,99.90
2018-08-14T21:58:55.577Z,99.90
2018-08-14T22:01:25.283Z,99.90
2018-08-14T22:03:56.091Z,99.90
2018-08-14T22:06:25.751Z,99.90
2018-08-14T22:08:56.433Z,99.90
2018-08-14T22:11:26.096Z,99.90
2018-08-14T22:13:55.876Z,99.90
2018-08-14T22:16:25.423Z,99.90
2018-08-14T22:18:55.289Z,99.90
2018-08-14T22:21:25.143Z,99.90
2018-08-14T22:23:54.863Z,99.90
2018-08-14T22:26:24.649Z,99.90
2018-08-14T22:28:54.454Z,99.90
2018-08-14T22:31:23.828Z,99.90
2018-08-14T22:33:53.923Z,99.90
2018-08-14T22:36:23.387Z,99.90
2018-08-14T22:38:52.870Z,99.90
2018-08-14T22:41:22.413Z,99.90
2018-08-14T22:43:51.968Z,99.90
2018-08-14T22:46:21.941Z,99.90
2018-08-14T22:48:51.372Z,99.90
2018-08-14T22:51:21.095Z,99.90
2018-08-14T22:53:50.873Z,99.90
2018-08-14T22:56:20.469Z,99.90
2018-08-14T22:58:50.375Z,99.90
2018-08-14T23:01:20.261Z,99.90
2018-08-14T23:03:51.606Z,99.90
2018-08-14T23:06:21.137Z,99.90
2018-08-14T23:08:50.828Z,99.90
2018-08-14T23:11:20.388Z,99.90
2018-08-14T23:13:50.011Z,99.90
2018-08-14T23:16:19.664Z,99.90
2018-08-14T23:18:50.531Z,99.90
2018-08-14T23:21:20.181Z,99.90
2018-08-14T23:23:49.770Z,99.90
2018-08-14T23:26:19.505Z,99.90
2018-08-14T23:28:49.010Z,99.90
2018-08-14T23:31:18.694Z,99.90
2018-08-14T23:33:48.324Z,99.90
2018-08-14T23:36:17.607Z,99.90
2018-08-14T23:38:47.137Z,99.90
2018-08-14T23:41:17.957Z,99.90
2018-08-14T23:43:47.657Z,99.90
2018-08-14T23:46:17.157Z,99.90
2018-08-14T23:48:46.659Z,99.90
2018-08-14T23:51:16.119Z,99.90
2018-08-14T23:53:45.869Z,99.90
2018-08-14T23:56:15.483Z,99.90
2018-08-14T23:58:45.149Z,99.90
